sensor_id;sensor_type;location;lat;lon;timestamp;P1;durP1;ratioP1;P2;durP2;ratioP2
40635;SDS011;26642;55.766;37.828;2023-08-06T00:00:24;9.82;;;7.20;;
40635;SDS011;26642;55.766;37.828;2023-08-06T00:02:50;9.38;;;7.53;;
40635;SDS011;26642;55.766;37.828;2023-08-06T00:05:16;12.65;;;7.72;;
40635;SDS011;26642;55.766;37.828;2023-08-06T00:07:46;8.40;;;6.97;;
40635;SDS011;26642;55.766;37.828;2023-08-06T00:10:13;10.05;;;7.80;;
40635;SDS011;26642;55.766;37.828;2023-08-06T00:12:39;7.68;;;6.88;;
40635;SDS011;26642;55.766;37.828;2023-08-06T00:15:05;10.35;;;6.95;;
40635;SDS011;26642;55.766;37.828;2023-08-06T00:17:33;8.10;;;7.28;;
40635;SDS011;26642;55.766;37.828;2023-08-06T00:20:00;10.35;;;7.70;;
40635;SDS011;26642;55.766;37.828;2023-08-06T00:22:36;10.68;;;7.35;;
40635;SDS011;26642;55.766;37.828;2023-08-06T00:25:03;9.30;;;8.00;;
40635;SDS011;26642;55.766;37.828;2023-08-06T00:27:31;11.10;;;8.10;;
40635;SDS011;26642;55.766;37.828;2023-08-06T00:29:57;11.82;;;7.75;;
40635;SDS011;26642;55.766;37.828;2023-08-06T00:32:24;9.98;;;7.63;;
40635;SDS011;26642;55.766;37.828;2023-08-06T00:34:50;10.75;;;7.78;;
40635;SDS011;26642;55.766;37.828;2023-08-06T00:37:19;9.80;;;7.80;;
40635;SDS011;26642;55.766;37.828;2023-08-06T00:39:45;10.70;;;7.47;;
40635;SDS011;26642;55.766;37.828;2023-08-06T00:42:11;9.63;;;7.50;;
40635;SDS011;26642;55.766;37.828;2023-08-06T00:44:37;11.05;;;8.23;;
40635;SDS011;26642;55.766;37.828;2023-08-06T00:47:04;11.88;;;7.25;;
40635;SDS011;26642;55.766;37.828;2023-08-06T00:49:33;13.73;;;8.50;;
40635;SDS011;26642;55.766;37.828;2023-08-06T00:51:59;10.38;;;7.80;;
40635;SDS011;26642;55.766;37.828;2023-08-06T00:54:25;9.73;;;7.72;;
40635;SDS011;26642;55.766;37.828;2023-08-06T00:56:52;10.40;;;7.40;;
40635;SDS011;26642;55.766;37.828;2023-08-06T00:59:19;9.93;;;7.43;;
40635;SDS011;26642;55.766;37.828;2023-08-06T01:01:45;12.57;;;8.18;;
40635;SDS011;26642;55.766;37.828;2023-08-06T01:04:11;8.95;;;7.70;;
40635;SDS011;26642;55.766;37.828;2023-08-06T01:12:28;11.57;;;7.53;;
40635;SDS011;26642;55.766;37.828;2023-08-06T01:15:15;10.07;;;7.60;;
40635;SDS011;26642;55.766;37.828;2023-08-06T01:17:45;9.75;;;7.25;;
40635;SDS011;26642;55.766;37.828;2023-08-06T01:20:11;9.55;;;7.88;;
40635;SDS011;26642;55.766;37.828;2023-08-06T01:22:37;12.65;;;7.97;;
40635;SDS011;26642;55.766;37.828;2023-08-06T01:25:03;10.05;;;8.07;;
40635;SDS011;26642;55.766;37.828;2023-08-06T01:27:47;8.95;;;7.40;;
40635;SDS011;26642;55.766;37.828;2023-08-06T01:30:16;11.18;;;7.38;;
40635;SDS011;26642;55.766;37.828;2023-08-06T01:32:46;9.70;;;7.55;;
40635;SDS011;26642;55.766;37.828;2023-08-06T01:35:15;8.63;;;7.30;;
40635;SDS011;26642;55.766;37.828;2023-08-06T01:37:42;10.30;;;7.53;;
40635;SDS011;26642;55.766;37.828;2023-08-06T01:40:11;11.80;;;8.20;;
40635;SDS011;26642;55.766;37.828;2023-08-06T01:42:39;12.07;;;8.27;;
40635;SDS011;26642;55.766;37.828;2023-08-06T01:45:07;10.75;;;7.93;;
40635;SDS011;26642;55.766;37.828;2023-08-06T01:47:33;9.63;;;7.60;;
40635;SDS011;26642;55.766;37.828;2023-08-06T01:50:00;11.13;;;7.85;;
40635;SDS011;26642;55.766;37.828;2023-08-06T01:52:26;10.88;;;7.90;;
40635;SDS011;26642;55.766;37.828;2023-08-06T01:54:53;9.25;;;7.70;;
40635;SDS011;26642;55.766;37.828;2023-08-06T01:57:19;11.38;;;7.97;;
40635;SDS011;26642;55.766;37.828;2023-08-06T01:59:45;12.07;;;8.05;;
40635;SDS011;26642;55.766;37.828;2023-08-06T02:02:11;10.70;;;7.70;;
40635;SDS011;26642;55.766;37.828;2023-08-06T02:04:37;8.95;;;7.82;;
40635;SDS011;26642;55.766;37.828;2023-08-06T02:07:04;12.85;;;8.05;;
40635;SDS011;26642;55.766;37.828;2023-08-06T02:09:30;11.05;;;7.70;;
40635;SDS011;26642;55.766;37.828;2023-08-06T02:11:57;10.00;;;7.25;;
40635;SDS011;26642;55.766;37.828;2023-08-06T02:14:23;8.32;;;7.53;;
40635;SDS011;26642;55.766;37.828;2023-08-06T02:16:49;10.35;;;8.15;;
40635;SDS011;26642;55.766;37.828;2023-08-06T02:19:15;9.85;;;8.15;;
40635;SDS011;26642;55.766;37.828;2023-08-06T02:21:41;11.25;;;8.38;;
40635;SDS011;26642;55.766;37.828;2023-08-06T02:24:07;10.90;;;8.20;;
40635;SDS011;26642;55.766;37.828;2023-08-06T02:26:33;11.18;;;8.38;;
40635;SDS011;26642;55.766;37.828;2023-08-06T02:28:59;9.23;;;8.02;;
40635;SDS011;26642;55.766;37.828;2023-08-06T02:31:25;8.95;;;7.30;;
40635;SDS011;26642;55.766;37.828;2023-08-06T02:33:51;9.85;;;7.90;;
40635;SDS011;26642;55.766;37.828;2023-08-06T02:36:19;11.50;;;8.45;;
40635;SDS011;26642;55.766;37.828;2023-08-06T02:38:44;11.55;;;8.73;;
40635;SDS011;26642;55.766;37.828;2023-08-06T02:41:10;10.38;;;8.15;;
40635;SDS011;26642;55.766;37.828;2023-08-06T02:43:36;10.45;;;8.18;;
40635;SDS011;26642;55.766;37.828;2023-08-06T02:46:02;13.65;;;8.02;;
40635;SDS011;26642;55.766;37.828;2023-08-06T02:48:28;11.88;;;8.70;;
40635;SDS011;26642;55.766;37.828;2023-08-06T02:50:58;13.38;;;8.65;;
40635;SDS011;26642;55.766;37.828;2023-08-06T02:53:29;12.60;;;8.75;;
40635;SDS011;26642;55.766;37.828;2023-08-06T02:55:57;11.18;;;8.90;;
40635;SDS011;26642;55.766;37.828;2023-08-06T02:58:31;11.60;;;8.67;;
40635;SDS011;26642;55.766;37.828;2023-08-06T03:01:17;9.60;;;7.82;;
40635;SDS011;26642;55.766;37.828;2023-08-06T03:03:50;11.82;;;8.57;;
40635;SDS011;26642;55.766;37.828;2023-08-06T03:06:23;10.35;;;8.02;;
40635;SDS011;26642;55.766;37.828;2023-08-06T03:08:52;9.95;;;8.40;;
40635;SDS011;26642;55.766;37.828;2023-08-06T03:11:19;11.95;;;8.48;;
40635;SDS011;26642;55.766;37.828;2023-08-06T03:13:49;12.93;;;8.70;;
40635;SDS011;26642;55.766;37.828;2023-08-06T03:16:16;10.30;;;7.45;;
40635;SDS011;26642;55.766;37.828;2023-08-06T03:18:43;11.43;;;8.60;;
40635;SDS011;26642;55.766;37.828;2023-08-06T03:21:09;11.07;;;7.75;;
40635;SDS011;26642;55.766;37.828;2023-08-06T03:23:35;12.38;;;7.85;;
40635;SDS011;26642;55.766;37.828;2023-08-06T03:26:02;12.55;;;8.05;;
40635;SDS011;26642;55.766;37.828;2023-08-06T03:28:29;10.45;;;7.88;;
40635;SDS011;26642;55.766;37.828;2023-08-06T03:30:59;10.68;;;8.23;;
40635;SDS011;26642;55.766;37.828;2023-08-06T03:33:35;10.90;;;7.72;;
40635;SDS011;26642;55.766;37.828;2023-08-06T03:36:03;12.15;;;7.82;;
40635;SDS011;26642;55.766;37.828;2023-08-06T03:38:32;10.73;;;7.88;;
40635;SDS011;26642;55.766;37.828;2023-08-06T03:40:59;11.95;;;8.30;;
40635;SDS011;26642;55.766;37.828;2023-08-06T03:43:25;9.80;;;7.80;;
40635;SDS011;26642;55.766;37.828;2023-08-06T03:45:51;13.60;;;8.18;;
40635;SDS011;26642;55.766;37.828;2023-08-06T03:48:17;10.35;;;8.15;;
40635;SDS011;26642;55.766;37.828;2023-08-06T03:50:43;9.40;;;7.55;;
40635;SDS011;26642;55.766;37.828;2023-08-06T03:53:12;9.70;;;7.53;;
40635;SDS011;26642;55.766;37.828;2023-08-06T03:55:38;10.40;;;7.40;;
40635;SDS011;26642;55.766;37.828;2023-08-06T03:58:04;9.63;;;7.53;;
40635;SDS011;26642;55.766;37.828;2023-08-06T04:00:31;10.43;;;7.65;;
40635;SDS011;26642;55.766;37.828;2023-08-06T04:02:57;11.95;;;7.10;;
40635;SDS011;26642;55.766;37.828;2023-08-06T04:05:22;12.73;;;7.10;;
40635;SDS011;26642;55.766;37.828;2023-08-06T04:07:48;9.77;;;7.70;;
40635;SDS011;26642;55.766;37.828;2023-08-06T04:10:14;9.25;;;7.63;;
40635;SDS011;26642;55.766;37.828;2023-08-06T04:12:40;9.50;;;7.60;;
40635;SDS011;26642;55.766;37.828;2023-08-06T04:15:06;9.98;;;7.13;;
40635;SDS011;26642;55.766;37.828;2023-08-06T04:17:32;12.05;;;7.40;;
40635;SDS011;26642;55.766;37.828;2023-08-06T04:19:58;9.38;;;7.03;;
40635;SDS011;26642;55.766;37.828;2023-08-06T04:22:24;12.63;;;7.32;;
40635;SDS011;26642;55.766;37.828;2023-08-06T04:24:50;8.85;;;7.50;;
40635;SDS011;26642;55.766;37.828;2023-08-06T04:27:17;11.07;;;7.13;;
40635;SDS011;26642;55.766;37.828;2023-08-06T04:29:45;10.95;;;7.22;;
40635;SDS011;26642;55.766;37.828;2023-08-06T04:32:12;8.32;;;7.07;;
40635;SDS011;26642;55.766;37.828;2023-08-06T04:34:44;10.05;;;7.20;;
40635;SDS011;26642;55.766;37.828;2023-08-06T04:37:10;10.55;;;6.63;;
40635;SDS011;26642;55.766;37.828;2023-08-06T04:39:37;9.80;;;6.63;;
40635;SDS011;26642;55.766;37.828;2023-08-06T04:42:03;9.75;;;7.38;;
40635;SDS011;26642;55.766;37.828;2023-08-06T04:44:29;9.57;;;6.82;;
40635;SDS011;26642;55.766;37.828;2023-08-06T04:46:55;7.90;;;7.13;;
40635;SDS011;26642;55.766;37.828;2023-08-06T04:49:21;10.40;;;7.03;;
40635;SDS011;26642;55.766;37.828;2023-08-06T04:51:47;9.57;;;6.72;;
40635;SDS011;26642;55.766;37.828;2023-08-06T04:54:13;9.75;;;6.85;;
40635;SDS011;26642;55.766;37.828;2023-08-06T04:56:39;9.40;;;7.03;;
40635;SDS011;26642;55.766;37.828;2023-08-06T04:59:05;7.85;;;6.60;;
40635;SDS011;26642;55.766;37.828;2023-08-06T05:01:31;11.05;;;6.90;;
40635;SDS011;26642;55.766;37.828;2023-08-06T05:03:57;8.85;;;6.35;;
40635;SDS011;26642;55.766;37.828;2023-08-06T05:06:23;7.50;;;6.38;;
40635;SDS011;26642;55.766;37.828;2023-08-06T05:08:49;8.98;;;6.57;;
40635;SDS011;26642;55.766;37.828;2023-08-06T05:11:15;10.35;;;6.93;;
40635;SDS011;26642;55.766;37.828;2023-08-06T05:13:41;8.98;;;6.28;;
40635;SDS011;26642;55.766;37.828;2023-08-06T05:16:07;8.98;;;6.43;;
40635;SDS011;26642;55.766;37.828;2023-08-06T05:18:32;7.65;;;6.13;;
40635;SDS011;26642;55.766;37.828;2023-08-06T05:20:59;9.27;;;6.82;;
40635;SDS011;26642;55.766;37.828;2023-08-06T05:23:25;9.93;;;6.57;;
40635;SDS011;26642;55.766;37.828;2023-08-06T05:25:51;7.53;;;6.70;;
40635;SDS011;26642;55.766;37.828;2023-08-06T05:28:17;11.98;;;6.85;;
40635;SDS011;26642;55.766;37.828;2023-08-06T05:30:43;10.00;;;6.72;;
40635;SDS011;26642;55.766;37.828;2023-08-06T05:33:09;8.88;;;6.45;;
40635;SDS011;26642;55.766;37.828;2023-08-06T05:35:35;7.15;;;6.45;;
40635;SDS011;26642;55.766;37.828;2023-08-06T05:38:01;9.40;;;6.70;;
40635;SDS011;26642;55.766;37.828;2023-08-06T05:40:27;9.32;;;6.65;;
40635;SDS011;26642;55.766;37.828;2023-08-06T05:42:53;7.40;;;6.35;;
40635;SDS011;26642;55.766;37.828;2023-08-06T05:45:20;10.40;;;6.22;;
40635;SDS011;26642;55.766;37.828;2023-08-06T05:47:47;8.93;;;5.97;;
40635;SDS011;26642;55.766;37.828;2023-08-06T05:50:13;9.35;;;5.72;;
40635;SDS011;26642;55.766;37.828;2023-08-06T05:52:39;7.93;;;6.28;;
40635;SDS011;26642;55.766;37.828;2023-08-06T05:55:05;10.27;;;6.45;;
40635;SDS011;26642;55.766;37.828;2023-08-06T05:57:32;7.20;;;5.90;;
40635;SDS011;26642;55.766;37.828;2023-08-06T05:59:57;8.68;;;6.13;;
40635;SDS011;26642;55.766;37.828;2023-08-06T06:02:23;8.32;;;6.15;;
40635;SDS011;26642;55.766;37.828;2023-08-06T06:04:49;10.32;;;6.13;;
40635;SDS011;26642;55.766;37.828;2023-08-06T06:07:15;6.75;;;6.05;;
40635;SDS011;26642;55.766;37.828;2023-08-06T06:09:41;10.75;;;6.32;;
40635;SDS011;26642;55.766;37.828;2023-08-06T06:12:07;7.82;;;6.30;;
40635;SDS011;26642;55.766;37.828;2023-08-06T06:14:33;6.80;;;6.10;;
40635;SDS011;26642;55.766;37.828;2023-08-06T06:16:59;10.57;;;5.97;;
40635;SDS011;26642;55.766;37.828;2023-08-06T06:19:26;6.03;;;5.43;;
40635;SDS011;26642;55.766;37.828;2023-08-06T06:21:52;8.90;;;5.93;;
40635;SDS011;26642;55.766;37.828;2023-08-06T06:24:18;7.80;;;5.63;;
40635;SDS011;26642;55.766;37.828;2023-08-06T06:26:44;12.57;;;5.95;;
40635;SDS011;26642;55.766;37.828;2023-08-06T06:29:10;7.03;;;5.57;;
40635;SDS011;26642;55.766;37.828;2023-08-06T06:31:36;10.48;;;5.60;;
40635;SDS011;26642;55.766;37.828;2023-08-06T06:34:02;8.27;;;5.68;;
40635;SDS011;26642;55.766;37.828;2023-08-06T06:36:28;7.60;;;6.13;;
40635;SDS011;26642;55.766;37.828;2023-08-06T06:38:54;6.85;;;5.75;;
40635;SDS011;26642;55.766;37.828;2023-08-06T06:41:20;6.35;;;5.43;;
40635;SDS011;26642;55.766;37.828;2023-08-06T06:43:45;10.85;;;5.60;;
40635;SDS011;26642;55.766;37.828;2023-08-06T06:46:11;7.20;;;5.60;;
40635;SDS011;26642;55.766;37.828;2023-08-06T06:48:37;7.93;;;5.57;;
40635;SDS011;26642;55.766;37.828;2023-08-06T06:51:03;7.47;;;5.30;;
40635;SDS011;26642;55.766;37.828;2023-08-06T06:53:29;7.90;;;5.55;;
40635;SDS011;26642;55.766;37.828;2023-08-06T06:55:56;7.45;;;5.07;;
40635;SDS011;26642;55.766;37.828;2023-08-06T06:58:27;7.20;;;5.63;;
40635;SDS011;26642;55.766;37.828;2023-08-06T07:00:53;9.73;;;5.70;;
40635;SDS011;26642;55.766;37.828;2023-08-06T07:03:21;6.43;;;5.20;;
40635;SDS011;26642;55.766;37.828;2023-08-06T07:05:48;7.22;;;5.53;;
40635;SDS011;26642;55.766;37.828;2023-08-06T07:08:15;6.68;;;5.35;;
40635;SDS011;26642;55.766;37.828;2023-08-06T07:10:41;6.75;;;5.22;;
40635;SDS011;26642;55.766;37.828;2023-08-06T07:13:08;6.72;;;5.00;;
40635;SDS011;26642;55.766;37.828;2023-08-06T07:15:35;15.38;;;5.30;;
40635;SDS011;26642;55.766;37.828;2023-08-06T07:18:01;7.22;;;5.53;;
40635;SDS011;26642;55.766;37.828;2023-08-06T07:20:27;8.68;;;5.32;;
40635;SDS011;26642;55.766;37.828;2023-08-06T07:22:58;8.75;;;5.05;;
40635;SDS011;26642;55.766;37.828;2023-08-06T07:25:24;5.65;;;4.78;;
40635;SDS011;26642;55.766;37.828;2023-08-06T07:27:50;5.85;;;4.75;;
40635;SDS011;26642;55.766;37.828;2023-08-06T07:30:16;6.15;;;4.95;;
40635;SDS011;26642;55.766;37.828;2023-08-06T07:32:42;5.55;;;4.63;;
40635;SDS011;26642;55.766;37.828;2023-08-06T07:35:08;5.97;;;4.70;;
40635;SDS011;26642;55.766;37.828;2023-08-06T07:37:38;5.97;;;4.55;;
40635;SDS011;26642;55.766;37.828;2023-08-06T07:40:04;8.57;;;4.55;;
40635;SDS011;26642;55.766;37.828;2023-08-06T07:42:30;5.00;;;4.50;;
40635;SDS011;26642;55.766;37.828;2023-08-06T07:44:58;9.20;;;4.82;;
40635;SDS011;26642;55.766;37.828;2023-08-06T07:47:24;12.50;;;4.57;;
40635;SDS011;26642;55.766;37.828;2023-08-06T07:49:50;6.70;;;4.70;;
40635;SDS011;26642;55.766;37.828;2023-08-06T07:52:16;6.32;;;4.57;;
40635;SDS011;26642;55.766;37.828;2023-08-06T07:54:42;5.88;;;4.53;;
40635;SDS011;26642;55.766;37.828;2023-08-06T07:57:08;6.22;;;4.85;;
40635;SDS011;26642;55.766;37.828;2023-08-06T07:59:34;7.80;;;5.10;;
40635;SDS011;26642;55.766;37.828;2023-08-06T08:02:00;5.80;;;4.47;;
40635;SDS011;26642;55.766;37.828;2023-08-06T08:04:26;6.65;;;4.40;;
40635;SDS011;26642;55.766;37.828;2023-08-06T08:06:52;5.70;;;4.32;;
40635;SDS011;26642;55.766;37.828;2023-08-06T08:09:18;7.53;;;4.55;;
40635;SDS011;26642;55.766;37.828;2023-08-06T08:11:44;4.68;;;4.13;;
40635;SDS011;26642;55.766;37.828;2023-08-06T08:14:11;5.50;;;4.43;;
40635;SDS011;26642;55.766;37.828;2023-08-06T08:16:37;8.27;;;4.60;;
40635;SDS011;26642;55.766;37.828;2023-08-06T08:19:03;5.43;;;4.30;;
40635;SDS011;26642;55.766;37.828;2023-08-06T08:21:29;4.80;;;4.30;;
40635;SDS011;26642;55.766;37.828;2023-08-06T08:23:55;6.03;;;4.28;;
40635;SDS011;26642;55.766;37.828;2023-08-06T08:26:21;7.50;;;4.78;;
40635;SDS011;26642;55.766;37.828;2023-08-06T08:28:47;5.85;;;4.20;;
40635;SDS011;26642;55.766;37.828;2023-08-06T08:31:13;5.57;;;4.40;;
40635;SDS011;26642;55.766;37.828;2023-08-06T08:33:39;4.80;;;3.97;;
40635;SDS011;26642;55.766;37.828;2023-08-06T08:36:05;5.28;;;4.10;;
40635;SDS011;26642;55.766;37.828;2023-08-06T08:38:32;4.63;;;4.10;;
40635;SDS011;26642;55.766;37.828;2023-08-06T08:40:58;4.90;;;4.40;;
40635;SDS011;26642;55.766;37.828;2023-08-06T08:43:24;5.50;;;3.90;;
40635;SDS011;26642;55.766;37.828;2023-08-06T08:45:50;6.25;;;4.30;;
40635;SDS011;26642;55.766;37.828;2023-08-06T08:48:17;5.75;;;3.88;;
40635;SDS011;26642;55.766;37.828;2023-08-06T08:50:45;5.07;;;3.97;;
40635;SDS011;26642;55.766;37.828;2023-08-06T08:53:12;4.00;;;3.60;;
40635;SDS011;26642;55.766;37.828;2023-08-06T08:55:40;4.95;;;3.80;;
40635;SDS011;26642;55.766;37.828;2023-08-06T08:58:10;4.43;;;4.00;;
40635;SDS011;26642;55.766;37.828;2023-08-06T09:00:36;3.90;;;3.60;;
40635;SDS011;26642;55.766;37.828;2023-08-06T09:03:02;4.50;;;3.65;;
40635;SDS011;26642;55.766;37.828;2023-08-06T09:05:31;4.50;;;3.92;;
40635;SDS011;26642;55.766;37.828;2023-08-06T09:08:04;3.97;;;3.60;;
40635;SDS011;26642;55.766;37.828;2023-08-06T09:10:30;4.82;;;4.13;;
40635;SDS011;26642;55.766;37.828;2023-08-06T09:12:56;4.00;;;3.53;;
40635;SDS011;26642;55.766;37.828;2023-08-06T09:15:27;5.53;;;3.95;;
40635;SDS011;26642;55.766;37.828;2023-08-06T09:17:53;4.15;;;3.75;;
40635;SDS011;26642;55.766;37.828;2023-08-06T09:20:20;4.75;;;4.15;;
40635;SDS011;26642;55.766;37.828;2023-08-06T09:22:46;4.70;;;3.85;;
40635;SDS011;26642;55.766;37.828;2023-08-06T09:25:23;4.90;;;4.15;;
40635;SDS011;26642;55.766;37.828;2023-08-06T09:27:51;4.53;;;3.83;;
40635;SDS011;26642;55.766;37.828;2023-08-06T09:30:30;4.40;;;4.00;;
40635;SDS011;26642;55.766;37.828;2023-08-06T09:32:57;4.47;;;4.05;;
40635;SDS011;26642;55.766;37.828;2023-08-06T09:35:23;5.00;;;4.40;;
40635;SDS011;26642;55.766;37.828;2023-08-06T09:37:49;4.93;;;4.30;;
40635;SDS011;26642;55.766;37.828;2023-08-06T09:40:25;5.97;;;4.50;;
40635;SDS011;26642;55.766;37.828;2023-08-06T09:42:56;6.45;;;4.50;;
40635;SDS011;26642;55.766;37.828;2023-08-06T09:45:31;5.05;;;4.20;;
40635;SDS011;26642;55.766;37.828;2023-08-06T09:48:05;5.15;;;4.65;;
40635;SDS011;26642;55.766;37.828;2023-08-06T09:50:32;5.32;;;4.82;;
40635;SDS011;26642;55.766;37.828;2023-08-06T09:53:02;5.93;;;4.70;;
40635;SDS011;26642;55.766;37.828;2023-08-06T09:55:29;5.75;;;4.22;;
40635;SDS011;26642;55.766;37.828;2023-08-06T09:57:55;5.85;;;4.78;;
40635;SDS011;26642;55.766;37.828;2023-08-06T10:00:22;6.03;;;4.82;;
40635;SDS011;26642;55.766;37.828;2023-08-06T10:02:48;5.22;;;4.72;;
40635;SDS011;26642;55.766;37.828;2023-08-06T10:05:16;5.68;;;4.70;;
40635;SDS011;26642;55.766;37.828;2023-08-06T10:07:43;6.22;;;4.55;;
40635;SDS011;26642;55.766;37.828;2023-08-06T10:10:11;5.28;;;4.85;;
40635;SDS011;26642;55.766;37.828;2023-08-06T10:12:38;5.93;;;5.00;;
40635;SDS011;26642;55.766;37.828;2023-08-06T10:15:09;6.45;;;4.95;;
40635;SDS011;26642;55.766;37.828;2023-08-06T10:17:37;6.47;;;4.97;;
40635;SDS011;26642;55.766;37.828;2023-08-06T10:20:05;5.78;;;5.15;;
40635;SDS011;26642;55.766;37.828;2023-08-06T10:22:35;6.05;;;4.85;;
40635;SDS011;26642;55.766;37.828;2023-08-06T10:25:02;5.68;;;4.85;;
40635;SDS011;26642;55.766;37.828;2023-08-06T10:32:51;6.22;;;5.20;;
40635;SDS011;26642;55.766;37.828;2023-08-06T10:38:10;5.00;;;4.60;;
40635;SDS011;26642;55.766;37.828;2023-08-06T10:43:25;5.75;;;5.05;;
40635;SDS011;26642;55.766;37.828;2023-08-06T10:45:53;5.70;;;4.88;;
40635;SDS011;26642;55.766;37.828;2023-08-06T10:48:29;6.45;;;5.05;;
40635;SDS011;26642;55.766;37.828;2023-08-06T10:50:59;5.38;;;4.88;;
40635;SDS011;26642;55.766;37.828;2023-08-06T10:53:25;8.65;;;5.22;;
40635;SDS011;26642;55.766;37.828;2023-08-06T10:55:51;6.68;;;4.78;;
40635;SDS011;26642;55.766;37.828;2023-08-06T10:58:17;7.55;;;5.40;;
40635;SDS011;26642;55.766;37.828;2023-08-06T11:00:43;5.32;;;4.70;;
40635;SDS011;26642;55.766;37.828;2023-08-06T11:03:10;5.50;;;5.00;;
40635;SDS011;26642;55.766;37.828;2023-08-06T11:05:36;6.43;;;4.93;;
40635;SDS011;26642;55.766;37.828;2023-08-06T11:08:02;6.55;;;4.82;;
40635;SDS011;26642;55.766;37.828;2023-08-06T11:10:28;4.97;;;4.47;;
40635;SDS011;26642;55.766;37.828;2023-08-06T11:12:54;6.28;;;5.05;;
40635;SDS011;26642;55.766;37.828;2023-08-06T11:15:25;6.15;;;5.03;;
40635;SDS011;26642;55.766;37.828;2023-08-06T11:17:51;5.53;;;5.03;;
40635;SDS011;26642;55.766;37.828;2023-08-06T11:20:17;5.88;;;4.68;;
40635;SDS011;26642;55.766;37.828;2023-08-06T11:22:47;5.43;;;4.93;;
40635;SDS011;26642;55.766;37.828;2023-08-06T11:25:13;7.07;;;4.70;;
40635;SDS011;26642;55.766;37.828;2023-08-06T11:27:39;7.28;;;5.13;;
40635;SDS011;26642;55.766;37.828;2023-08-06T11:30:05;5.75;;;5.18;;
40635;SDS011;26642;55.766;37.828;2023-08-06T11:32:32;5.25;;;4.75;;
40635;SDS011;26642;55.766;37.828;2023-08-06T11:34:58;7.05;;;5.28;;
40635;SDS011;26642;55.766;37.828;2023-08-06T11:37:24;5.93;;;5.10;;
40635;SDS011;26642;55.766;37.828;2023-08-06T11:39:50;5.72;;;4.68;;
40635;SDS011;26642;55.766;37.828;2023-08-06T11:42:17;6.43;;;5.28;;
40635;SDS011;26642;55.766;37.828;2023-08-06T11:44:43;6.10;;;5.50;;
40635;SDS011;26642;55.766;37.828;2023-08-06T11:47:12;6.15;;;4.50;;
40635;SDS011;26642;55.766;37.828;2023-08-06T11:52:14;5.07;;;4.68;;
40635;SDS011;26642;55.766;37.828;2023-08-06T11:54:41;5.20;;;4.75;;
40635;SDS011;26642;55.766;37.828;2023-08-06T11:57:08;9.65;;;4.88;;
40635;SDS011;26642;55.766;37.828;2023-08-06T11:59:34;8.23;;;4.97;;
40635;SDS011;26642;55.766;37.828;2023-08-06T12:02:02;5.70;;;4.75;;
40635;SDS011;26642;55.766;37.828;2023-08-06T12:04:31;4.93;;;4.38;;
40635;SDS011;26642;55.766;37.828;2023-08-06T12:07:07;5.50;;;5.00;;
40635;SDS011;26642;55.766;37.828;2023-08-06T12:09:35;5.40;;;4.90;;
40635;SDS011;26642;55.766;37.828;2023-08-06T12:12:01;5.78;;;4.78;;
40635;SDS011;26642;55.766;37.828;2023-08-06T12:14:29;5.20;;;4.70;;
40635;SDS011;26642;55.766;37.828;2023-08-06T12:16:54;5.68;;;4.53;;
40635;SDS011;26642;55.766;37.828;2023-08-06T12:19:20;7.07;;;4.68;;
40635;SDS011;26642;55.766;37.828;2023-08-06T12:21:48;4.95;;;4.40;;
40635;SDS011;26642;55.766;37.828;2023-08-06T12:24:14;5.90;;;4.85;;
40635;SDS011;26642;55.766;37.828;2023-08-06T12:26:40;6.85;;;4.85;;
40635;SDS011;26642;55.766;37.828;2023-08-06T12:29:06;5.35;;;4.85;;
40635;SDS011;26642;55.766;37.828;2023-08-06T12:31:32;5.38;;;4.32;;
40635;SDS011;26642;55.766;37.828;2023-08-06T12:33:58;5.50;;;4.80;;
40635;SDS011;26642;55.766;37.828;2023-08-06T12:36:24;4.97;;;4.60;;
40635;SDS011;26642;55.766;37.828;2023-08-06T12:38:50;5.38;;;4.75;;
40635;SDS011;26642;55.766;37.828;2023-08-06T12:41:16;5.82;;;4.65;;
40635;SDS011;26642;55.766;37.828;2023-08-06T12:43:42;5.15;;;4.65;;
40635;SDS011;26642;55.766;37.828;2023-08-06T12:46:08;5.82;;;4.55;;
40635;SDS011;26642;55.766;37.828;2023-08-06T12:48:35;5.43;;;4.68;;
40635;SDS011;26642;55.766;37.828;2023-08-06T12:51:01;4.57;;;4.18;;
40635;SDS011;26642;55.766;37.828;2023-08-06T12:53:27;5.13;;;4.63;;
40635;SDS011;26642;55.766;37.828;2023-08-06T12:55:52;5.20;;;4.63;;
40635;SDS011;26642;55.766;37.828;2023-08-06T12:58:18;5.30;;;4.60;;
40635;SDS011;26642;55.766;37.828;2023-08-06T13:00:44;5.38;;;4.40;;
40635;SDS011;26642;55.766;37.828;2023-08-06T13:03:10;4.90;;;4.40;;
40635;SDS011;26642;55.766;37.828;2023-08-06T13:05:36;6.80;;;5.03;;
40635;SDS011;26642;55.766;37.828;2023-08-06T13:08:02;6.68;;;4.80;;
40635;SDS011;26642;55.766;37.828;2023-08-06T13:10:28;4.85;;;4.30;;
40635;SDS011;26642;55.766;37.828;2023-08-06T13:12:56;6.55;;;4.75;;
40635;SDS011;26642;55.766;37.828;2023-08-06T13:15:22;5.28;;;4.60;;
40635;SDS011;26642;55.766;37.828;2023-08-06T13:17:48;5.35;;;4.43;;
40635;SDS011;26642;55.766;37.828;2023-08-06T13:20:14;5.03;;;4.53;;
40635;SDS011;26642;55.766;37.828;2023-08-06T13:22:40;4.85;;;4.43;;
40635;SDS011;26642;55.766;37.828;2023-08-06T13:25:06;4.95;;;4.55;;
40635;SDS011;26642;55.766;37.828;2023-08-06T13:27:32;6.40;;;4.85;;
40635;SDS011;26642;55.766;37.828;2023-08-06T13:29:58;5.20;;;4.40;;
40635;SDS011;26642;55.766;37.828;2023-08-06T13:32:24;5.00;;;4.60;;
40635;SDS011;26642;55.766;37.828;2023-08-06T13:34:50;5.25;;;4.80;;
40635;SDS011;26642;55.766;37.828;2023-08-06T13:37:15;5.88;;;4.22;;
40635;SDS011;26642;55.766;37.828;2023-08-06T13:39:41;5.53;;;4.45;;
40635;SDS011;26642;55.766;37.828;2023-08-06T13:42:07;6.97;;;4.85;;
40635;SDS011;26642;55.766;37.828;2023-08-06T13:44:34;5.43;;;4.30;;
40635;SDS011;26642;55.766;37.828;2023-08-06T13:47:01;5.47;;;4.93;;
40635;SDS011;26642;55.766;37.828;2023-08-06T13:49:27;4.97;;;4.57;;
40635;SDS011;26642;55.766;37.828;2023-08-06T13:51:53;5.57;;;4.70;;
40635;SDS011;26642;55.766;37.828;2023-08-06T13:54:19;5.35;;;4.80;;
40635;SDS011;26642;55.766;37.828;2023-08-06T13:56:46;6.22;;;4.65;;
40635;SDS011;26642;55.766;37.828;2023-08-06T13:59:12;7.13;;;5.15;;
40635;SDS011;26642;55.766;37.828;2023-08-06T14:01:39;5.88;;;4.70;;
40635;SDS011;26642;55.766;37.828;2023-08-06T14:04:05;6.75;;;4.78;;
40635;SDS011;26642;55.766;37.828;2023-08-06T14:06:31;5.68;;;4.85;;
40635;SDS011;26642;55.766;37.828;2023-08-06T14:08:57;8.73;;;5.80;;
40635;SDS011;26642;55.766;37.828;2023-08-06T14:11:23;7.28;;;5.20;;
40635;SDS011;26642;55.766;37.828;2023-08-06T14:13:49;5.95;;;5.18;;
40635;SDS011;26642;55.766;37.828;2023-08-06T14:16:15;8.38;;;5.25;;
40635;SDS011;26642;55.766;37.828;2023-08-06T14:18:41;7.75;;;5.32;;
40635;SDS011;26642;55.766;37.828;2023-08-06T14:21:07;6.82;;;5.43;;
40635;SDS011;26642;55.766;37.828;2023-08-06T14:23:33;6.57;;;5.45;;
40635;SDS011;26642;55.766;37.828;2023-08-06T14:25:59;6.45;;;5.10;;
40635;SDS011;26642;55.766;37.828;2023-08-06T14:28:25;6.35;;;5.15;;
40635;SDS011;26642;55.766;37.828;2023-08-06T14:30:51;6.30;;;5.13;;
40635;SDS011;26642;55.766;37.828;2023-08-06T14:33:17;7.35;;;4.97;;
40635;SDS011;26642;55.766;37.828;2023-08-06T14:35:43;7.97;;;5.00;;
40635;SDS011;26642;55.766;37.828;2023-08-06T14:38:09;5.50;;;5.00;;
40635;SDS011;26642;55.766;37.828;2023-08-06T14:40:35;7.90;;;5.38;;
40635;SDS011;26642;55.766;37.828;2023-08-06T14:43:04;6.00;;;4.88;;
40635;SDS011;26642;55.766;37.828;2023-08-06T14:45:31;6.68;;;4.95;;
40635;SDS011;26642;55.766;37.828;2023-08-06T14:47:57;6.85;;;5.00;;